Terminal Aerodrome Forecast
Issued by NWS Topeka, KS

Home | Current Version | Previous Version | Graphics & Text | Print | Product List | Glossary On
Versions: 1 2 3 4 5 6 7 8 9 10 11 12 13 14 15 16
000
FTUS43 KTOP 111100
TAFTOP
TAF
KTOP 111138Z 1112/1212 14008KT P6SM VCSH SCT080
     FM111500 19012G19KT P6SM SCT100
     FM120300 18007KT P6SM FEW250=

USA.gov is the U.S. government's official web portal to all federal, state and local government web resources and services.